YPAD Airport Information

Runway Information
Runway 05 Length 10171 ft width 148 ft
Elevation 14 ft Threshold 493 ft Heading 50
Runway 23 Length 10171 ft Width 148 ft
Elevation 20 ft Threshold 0 ft Heading 230
Runway 12 Length 5420 ft width 148 ft
Elevation 14 ft Threshold 0 ft Heading 124
Runway 30 Length 5420 ft Width 148 ft
Elevation 14 ft Threshold 0 ft Heading 304
Airport Frequencies
Type A/D Name APP/DEP Frequency 118.2 MHZ
Type ATIS Name ATIS Frequency 116.4 MHZ
Type CLD Name CLNC DEL Frequency 126.1 MHZ
Type GND Name GND Frequency 121.7 MHZ
Type TWR Name TWR Frequency 120.5 MHZ
Airport Navaids
Type VOR-DME Name Adelaide Frequency 116400 KHZ
Type NDB Name Adelaide Frequency 362 KHZ
Type NDB Name Modbury Frequency 377 KHZ
Airport Weather Information & NOTAM
ADDS - METARS form results

(1437 UTC 24 July 2021)
Data provider http://aviationweather.gov/metar/data/
 
METAR text: YPAD 241430Z 24026KT 6000 -SHRA FEW012 SCT033 BKN039 08/06 Q1008
Conditions at: YPAD (ADELAIDE INTL AR, AU) observed 1430 UTC 24 July 2021
Temperature: 8.0°C (46°F)
Dewpoint: 6.0°C (43°F) [RH = 87%]
Pressure (altimeter): 29.76 inches Hg (1008.0 mb)
Winds: from the WSW (240 degrees) at 30 MPH (26 knots; 13.4 m/s)
Visibility: 4 miles ( 6 km)
Ceiling: 3900 feet AGL
Clouds: few clouds at 1200 feet AGL
scattered clouds at 3300 feet AGL
broken clouds at 3900 feet AGL
Weather: -SHRA  (light rain showers)

METAR text: YPAD 241421Z 25020G30KT 5000 SHRA FEW015 SCT039 BKN047 08/05 Q1008
Conditions at: YPAD (ADELAIDE INTL AR, AU) observed 1421 UTC 24 July 2021
Temperature: 8.0°C (46°F)
Dewpoint: 5.0°C (41°F) [RH = 81%]
Pressure (altimeter): 29.76 inches Hg (1008.0 mb)
Winds: from the WSW (250 degrees) at 23 MPH (20 knots; 10.3 m/s)
gusting to 34 MPH (30 knots; 15.4 m/s)
Visibility: 3 miles ( 5 km)
Ceiling: 4700 feet AGL
Clouds: few clouds at 1500 feet AGL
scattered clouds at 3900 feet AGL
broken clouds at 4700 feet AGL
Weather: SHRA  (rain showers)

METAR text: YPAD 241420Z 25019KT 6000 SHRA FEW015 SCT041 BKN047 10/06 Q1008
Conditions at: YPAD (ADELAIDE INTL AR, AU) observed 1420 UTC 24 July 2021
Temperature: 10.0°C (50°F)
Dewpoint: 6.0°C (43°F) [RH = 76%]
Pressure (altimeter): 29.76 inches Hg (1008.0 mb)
Winds: from the WSW (250 degrees) at 22 MPH (19 knots; 9.8 m/s)
Visibility: 4 miles ( 6 km)
Ceiling: 4700 feet AGL
Clouds: few clouds at 1500 feet AGL
scattered clouds at 4100 feet AGL
broken clouds at 4700 feet AGL
Weather: SHRA  (rain showers)

METAR text: YPAD 241406Z 26021KT 9999 FEW015 SCT035 BKN044 10/05 Q1007 RF00/0/010/2
Conditions at: YPAD (ADELAIDE INTL AR, AU) observed 1406 UTC 24 July 2021
Temperature: 10.0°C (50°F)
Dewpoint: 5.0°C (41°F) [RH = 71%]
Pressure (altimeter): 29.73 inches Hg (1007.0 mb)
Winds: from the W (260 degrees) at 24 MPH (21 knots; 10.8 m/s)
Visibility: 6 or more miles (10+ km)
Ceiling: 4400 feet AGL
Clouds: few clouds at 1500 feet AGL
scattered clouds at 3500 feet AGL
broken clouds at 4400 feet AGL
Weather: no significant weather observed at this time

METAR text: YPAD 241400Z 26025G36KT 9999 FEW015 SCT035 BKN046 10/05 Q1007
Conditions at: YPAD (ADELAIDE INTL AR, AU) observed 1400 UTC 24 July 2021
Temperature: 10.0°C (50°F)
Dewpoint: 5.0°C (41°F) [RH = 71%]
Pressure (altimeter): 29.73 inches Hg (1007.0 mb)
Winds: from the W (260 degrees) at 29 MPH (25 knots; 12.9 m/s)
gusting to 41 MPH (36 knots; 18.5 m/s)
Visibility: 6 or more miles (10+ km)
Ceiling: 4600 feet AGL
Clouds: few clouds at 1500 feet AGL
scattered clouds at 3500 feet AGL
broken clouds at 4600 feet AGL
Weather: no significant weather observed at this time

METAR text: YPAD 241354Z 26025G36KT 5000 VCSH FEW017 SCT043 BKN064 09/05 Q1007
Conditions at: YPAD (ADELAIDE INTL AR, AU) observed 1354 UTC 24 July 2021
Temperature: 9.0°C (48°F)
Dewpoint: 5.0°C (41°F) [RH = 76%]
Pressure (altimeter): 29.73 inches Hg (1007.0 mb)
Winds: from the W (260 degrees) at 29 MPH (25 knots; 12.9 m/s)
gusting to 41 MPH (36 knots; 18.5 m/s)
Visibility: 3 miles ( 5 km)
Ceiling: 6400 feet AGL
Clouds: few clouds at 1700 feet AGL
scattered clouds at 4300 feet AGL
broken clouds at 6400 feet AGL
Weather: VCSH  (showers in vicinity)

METAR text: YPAD 241350Z 26023KT 5000 VCSH FEW012 SCT040 BKN060 09/06 Q1007
Conditions at: YPAD (ADELAIDE INTL AR, AU) observed 1350 UTC 24 July 2021
Temperature: 9.0°C (48°F)
Dewpoint: 6.0°C (43°F) [RH = 81%]
Pressure (altimeter): 29.73 inches Hg (1007.0 mb)
Winds: from the W (260 degrees) at 26 MPH (23 knots; 11.8 m/s)
Visibility: 3 miles ( 5 km)
Ceiling: 6000 feet AGL
Clouds: few clouds at 1200 feet AGL
scattered clouds at 4000 feet AGL
broken clouds at 6000 feet AGL
Weather: VCSH  (showers in vicinity)

METAR text: YPAD 241347Z 23017KT 5000 SHRA FEW017CB SCT040 BKN060 09/05 Q1008
Conditions at: YPAD (ADELAIDE INTL AR, AU) observed 1347 UTC 24 July 2021
Temperature: 9.0°C (48°F)
Dewpoint: 5.0°C (41°F) [RH = 76%]
Pressure (altimeter): 29.76 inches Hg (1008.0 mb)
Winds: from the SW (230 degrees) at 20 MPH (17 knots; 8.7 m/s)
Visibility: 3 miles ( 5 km)
Ceiling: 6000 feet AGL
Clouds: few clouds at 1700 feet AGL
scattered clouds at 4000 feet AGL
broken clouds at 6000 feet AGL
Weather: SHRA  (rain showers)

Forecast for: YPAD (ADELAIDE INTL AR, AU)
Text: TAF YPAD 241429Z 2415/2518 26022G32KT 9999 -SHRA SCT025 BKN040
Forecast period: 1500 to 1600 UTC 24 July 2021
Forecast type: FROM: standard forecast or significant change
Winds: from the W (260 degrees) at 25 MPH (22 knots; 11.3 m/s)
gusting to 37 MPH (32 knots; 16.5 m/s)
Visibility: 6 or more miles (10+ km)
Ceiling: 4000 feet AGL
Clouds: scattered clouds at 2500 feet AGL
broken clouds at 4000 feet AGL
Weather: -SHRA  (light rain showers)
Text: FM241600 27018KT 9999 -SHRA FEW020 SCT035
Forecast period: 1600 to 2100 UTC 24 July 2021
Forecast type: FROM: standard forecast or significant change
Winds: from the W (270 degrees) at 21 MPH (18 knots; 9.3 m/s)
Visibility: 6 or more miles (10+ km)
Ceiling: at least 12,000 feet AGL
Clouds: few clouds at 2000 feet AGL
scattered clouds at 3500 feet AGL
Weather: -SHRA  (light rain showers)
Text: FM242100 29014KT 9999 NSW FEW020 SCT035
Forecast period: 2100 UTC 24 July 2021 to 0000 UTC 25 July 2021
Forecast type: FROM: standard forecast or significant change
Winds: from the WNW (290 degrees) at 16 MPH (14 knots; 7.2 m/s)
Visibility: 6 or more miles (10+ km)
Ceiling: at least 12,000 feet AGL
Clouds: few clouds at 2000 feet AGL
scattered clouds at 3500 feet AGL
Weather: NSW  (no significant weather)
Text: FM250000 31018G28KT 9999 -SHRA SCT020 BKN030
Forecast period: 0000 to 0800 UTC 25 July 2021
Forecast type: FROM: standard forecast or significant change
Winds: from the NW (310 degrees) at 21 MPH (18 knots; 9.3 m/s)
gusting to 32 MPH (28 knots; 14.4 m/s)
Visibility: 6 or more miles (10+ km)
Ceiling: 3000 feet AGL
Clouds: scattered clouds at 2000 feet AGL
broken clouds at 3000 feet AGL
Weather: -SHRA  (light rain showers)
Text: FM250800 29014KT 9999 -SHRA SCT025 BKN045
Forecast period: 0800 to 1200 UTC 25 July 2021
Forecast type: FROM: standard forecast or significant change
Winds: from the WNW (290 degrees) at 16 MPH (14 knots; 7.2 m/s)
Visibility: 6 or more miles (10+ km)
Ceiling: 4500 feet AGL
Clouds: scattered clouds at 2500 feet AGL
broken clouds at 4500 feet AGL
Weather: -SHRA  (light rain showers)
Text: FM251200 30014KT 9999 NSW SCT015 BKN025 INTER 2415/2419 23022G35KT 4000 SHRAGS BKN015 INTER 2500/2508 28030G40KT 4000 SHRA BKN015
Forecast period: 1200 to 1800 UTC 25 July 2021
Forecast type: FROM: standard forecast or significant change
Winds: from the WNW (300 degrees) at 16 MPH (14 knots; 7.2 m/s)
Visibility: 6 or more miles (10+ km)
Ceiling: 2500 feet AGL
Clouds: scattered clouds at 1500 feet AGL
broken clouds at 2500 feet AGL
Weather: NSW  (no significant weather)
Text: TEMPO 2514/2518 9999 BKN010
Forecast period: 1500 to 1900 UTC 24 July 2021
Forecast type: TEMPORARY: The following changes expected for less than half the time period
Winds: from the SW (230 degrees) at 25 MPH (22 knots; 11.3 m/s)
gusting to 40 MPH (35 knots; 18.0 m/s)
Visibility: 2.49 miles (4.01 km)
Ceiling: 1500 feet AGL
Clouds: broken clouds at 1500 feet AGL
Weather: SHRA SHGS  (rain showers, small hail or graupel showers)
Text:
Forecast period: 0000 to 0800 UTC 25 July 2021
Forecast type: TEMPORARY: The following changes expected for less than half the time period
Winds: from the W (280 degrees) at 34 MPH (30 knots; 15.4 m/s)
gusting to 46 MPH (40 knots; 20.6 m/s)
Visibility: 2.49 miles (4.01 km)
Ceiling: 1500 feet AGL
Clouds: broken clouds at 1500 feet AGL
Weather: SHRA  (rain showers)
Text:
Forecast period: 1400 to 1800 UTC 25 July 2021
Forecast type: TEMPORARY: The following changes expected for less than half the time period
Visibility: 6 or more miles (10+ km)
Ceiling: 1000 feet AGL
Clouds: broken clouds at 1000 feet AGL
Weather: no significant weather forecast for this period